WetterOnline ( https://www.wetteronline.de )

Wetter aktuell Caderzone Terme

Aktuelles Wetter: Paganella (2129m)

6-stündlich | Neueste Meldungen
Ortszeit Temperatur Wetter
Do, 18.07. 14:00 17.7° C leicht bewölkt
Do, 18.07. 8:00 13.0° C wolkig
Do, 18.07. 2:00 12.2° C wolkenlos
Mi, 17.07. 20:00 15.4° C leicht bewölkt
Mi, 17.07. 14:00 17.6° C leicht bewölkt
Mi, 17.07. 8:00 12.4° C leicht bewölkt
Mi, 17.07. 2:00 12.9° C Nebel
Di, 16.07. 20:00 15.6° C leicht bewölkt
Ortszeit Temperatur Wetter
Do, 18.07. 16:00 19.2° C leicht bewölkt
Do, 18.07. 15:00 18.4° C leicht bewölkt
Do, 18.07. 14:00 17.7° C leicht bewölkt
Do, 18.07. 13:00 16.8° C leicht bewölkt
Do, 18.07. 12:00 15.6° C leicht bewölkt
Do, 18.07. 11:00 14.0° C wolkig
Do, 18.07. 10:00 13.6° C wolkig
Ortszeit Relative Feuchte Sichtweite
Do, 18.07. 14:00 70% 20 km
Do, 18.07. 8:00 94% 10 km
Do, 18.07. 2:00 80% 20 km
Mi, 17.07. 20:00 77% 20 km
Mi, 17.07. 14:00 72% 10 km
Mi, 17.07. 8:00 96% 10 km
Mi, 17.07. 2:00 100% <100 m
Di, 16.07. 20:00 82% 20 km
Ortszeit Relative Feuchte Sichtweite
Do, 18.07. 16:00 68% 20 km
Do, 18.07. 15:00 68% 20 km
Do, 18.07. 14:00 70% 20 km
Do, 18.07. 13:00 70% 15 km
Do, 18.07. 12:00 76% 20 km
Do, 18.07. 11:00 85% 10 km
Do, 18.07. 10:00 86% 10 km
Ortszeit Niederschlagsmenge Niederschlagsart
Do, 18.07. 14:00 0.0 l/m2 in 6 Std. -
Do, 18.07. 8:00 0.0 l/m2 in 12 Std. -
Do, 18.07. 2:00 0.0 l/m2 in 6 Std. -
Mi, 17.07. 20:00 0.0 l/m2 in 12 Std. -
Mi, 17.07. 14:00 0.0 l/m2 in 6 Std. -
Mi, 17.07. 8:00 0.0 l/m2 in 12 Std. Nebel
Mi, 17.07. 2:00 0.0 l/m2 in 6 Std. Nebel
Di, 16.07. 20:00 0.0 l/m2 in 12 Std. -
Ortszeit Niederschlagsmenge Niederschlagsart
Do, 18.07. 16:00 keine Meldung -
Do, 18.07. 15:00 keine Meldung -
Do, 18.07. 14:00 keine Meldung -
Do, 18.07. 13:00 keine Meldung -
Do, 18.07. 12:00 keine Meldung -
Do, 18.07. 11:00 keine Meldung -
Do, 18.07. 10:00 keine Meldung -
Ortszeit Stärke Spitze Richtung
km/h Bft. km/h Grad Sektor
Do, 18.07. 14:00 11 2 - 180° S
Do, 18.07. 8:00 6 1 - 180° S
Do, 18.07. 2:00 0 0 - - -
Mi, 17.07. 20:00 24 4 - 210° SW
Mi, 17.07. 14:00 15 3 - 190° S
Mi, 17.07. 8:00 0 0 - - -
Mi, 17.07. 2:00 9 2 - 180° S
Di, 16.07. 20:00 28 4 - 220° SW
Ortszeit Stärke Spitze Richtung
km/h Bft. km/h Grad Sektor
Do, 18.07. 16:00 0 0 - - -
Do, 18.07. 15:00 7 2 - 190° S
Do, 18.07. 14:00 11 2 - 180° S
Do, 18.07. 13:00 9 2 - 180° S
Do, 18.07. 12:00 9 2 - 180° S
Do, 18.07. 11:00 7 2 - 190° S
Do, 18.07. 10:00 0 0 - - -
Ortszeit Untergrenze Bedeckung Gattung
total tief tief mittel hoch
Do, 18.07. 14:00 300 m 4/8 3/8 Cu Ac -
Do, 18.07. 8:00 <30 m 5/8 5/8 Cu - -
Do, 18.07. 2:00 - 0/8 0/8 - - -
Mi, 17.07. 20:00 <30 m 4/8 3/8 Cu - Ci
Mi, 17.07. 14:00 <30 m 5/8 3/8 Cu - Ci
Mi, 17.07. 8:00 <30 m 4/8 4/8 Cu - -
Mi, 17.07. 2:00 - 8/8 - - - -
Di, 16.07. 20:00 300 m 4/8 3/8 Cu - Ci
Ortszeit Bedeckungsgrad in Achtel und Wolkenuntergrenze
Do, 18.07. 16:00 3(300m)
Do, 18.07. 15:00 3(300m)
Do, 18.07. 14:00 2(300m)
Do, 18.07. 13:00 3(300m)
Do, 18.07. 12:00 3(300m)
Do, 18.07. 11:00 3(300m)
Do, 18.07. 10:00 3(300m)
Ortszeit Stationsdruck (hPa) Tendenz (hPa in 3 Std.)
Do, 18.07. 14:00 796 + 0,6
Do, 18.07. 8:00 795 + 0,2
Do, 18.07. 2:00 795 + 0,7
Mi, 17.07. 20:00 794 + 0,5
Mi, 17.07. 14:00 794 + 0,4
Mi, 17.07. 8:00 792 + 0,3
Mi, 17.07. 2:00 792 + 0,4
Di, 16.07. 20:00 791 - 0,1
Ortszeit Stationsdruck (hPa) Tendenz (hPa in 3 Std.)
Do, 18.07. 16:00 796 + 0,1
Do, 18.07. 15:00 796 + 0,6
Do, 18.07. 14:00 796 + 0,6
Do, 18.07. 13:00 796 + 0,7
Do, 18.07. 12:00 795 0,0
Do, 18.07. 11:00 795 + 0,3
Do, 18.07. 10:00 795 + 0,2
Ortszeit Schneehöhe (cm)
Do, 18.07. 14:00 -
Do, 18.07. 8:00 0
Do, 18.07. 2:00 -
Mi, 17.07. 20:00 -
Mi, 17.07. 14:00 -
Mi, 17.07. 8:00 0
Mi, 17.07. 2:00 -
Di, 16.07. 20:00 -
Ortszeit Schneehöhe (cm)
Do, 18.07. 16:00 -
Do, 18.07. 15:00 -
Do, 18.07. 14:00 -
Do, 18.07. 13:00 -
Do, 18.07. 12:00 -
Do, 18.07. 11:00 -
Do, 18.07. 10:00 -
Link zu dieser Seite / Seite empfehlen

Das Wetter in ...